Latest Weather Observations for Bradshaw

IDD60801

Issued at 10:31 am CST Wednesday 28 January 2015 (issued every 30 minutes, with the page automatically refreshed every 10 minutes)

About weather observations | Map of weather stations | Latest weather observations for NT | Other Formats
Station Details ID: 014954 Name: BRADSHAW Lat: -14.94 Lon: 130.81 Height: 75.0 m
Data from the previous 72 hours. | See also: Recent months at Bradshaw
Date/Time
CST
Temp
°C
App
Temp
°C
Dew
Point
Rel
Hum
%
Delta-T
°C
Wind Press
QNH
hPa
Press
MSL
hPa
Rain
since 9 am
mm
Dir
 
Spd
km/h
Gust
km/h
Spd
kts
Gust
kts
28/10:30am 29.2 33.7 25.8 82 2.4 SSW 13 17 7 9 1007.4 - 0.0
28/10:00am 28.9 33.8 25.9 84 2.1 SSW 11 15 6 8 1007.5 - 0.0
28/09:30am 28.0 33.6 25.4 86 1.8 SW 6 9 3 5 1007.6 - 0.0
28/09:00am 27.4 32.7 25.2 88 1.5 SE 7 9 4 5 1007.3 1006.7 15.0
28/08:30am 26.5 31.8 24.9 91 1.1 S 6 9 3 5 1007.0 - 15.0
28/08:00am 25.2 29.8 23.8 92 1.0 S 6 9 3 5 1006.5 - 15.0
28/07:30am 24.6 28.8 23.2 92 1.0 WSW 6 9 3 5 1006.4 - 15.0
28/07:00am 24.1 29.2 22.7 92 0.9 CALM 0 4 0 2 1006.3 - 15.0
28/06:30am 23.9 28.5 22.5 92 0.9 SW 2 7 1 4 1006.1 - 15.0
28/06:00am 23.9 28.8 22.3 91 1.1 CALM 0 0 0 0 1006.0 1005.5 15.0
28/05:30am 23.8 27.9 22.2 91 1.1 SW 4 7 2 4 1005.8 - 15.0
28/05:00am 24.1 27.8 22.5 91 1.1 SSW 7 9 4 5 1005.9 - 15.0
28/04:30am 24.2 28.5 22.6 91 1.1 S 4 6 2 3 1005.9 - 15.0
28/04:00am 24.3 29.4 22.6 90 1.1 CALM 0 4 0 2 1006.1 - 15.0
28/03:30am 24.4 28.4 22.7 90 1.1 SSE 6 9 3 5 1006.2 - 15.0
28/03:00am 24.2 28.4 22.5 90 1.1 NW 4 6 2 3 1006.2 1005.7 15.0
28/02:30am 24.1 28.7 22.4 90 1.1 NW 2 7 1 4 1006.5 - 15.0
28/02:00am 24.1 28.7 22.4 90 1.1 NE 2 9 1 5 1006.9 - 15.0
28/01:30am 24.0 27.1 22.1 89 1.3 ENE 9 13 5 7 1007.1 - 15.0
28/01:00am 24.1 27.6 22.2 89 1.3 NE 7 9 4 5 1007.7 - 15.0
28/12:30am 24.1 28.6 22.2 89 1.3 SSW 2 7 1 4 1008.1 - 15.0
28/12:00am 24.0 27.3 21.9 88 1.4 SSW 7 11 4 6 1008.5 1007.9 15.0
 
Date/Time
CST
Temp
°C
App
Temp
°C
Dew
Point
Rel
Hum
%
Delta-T
°C
Wind Press
QNH
hPa
Press
MSL
hPa
Rain
since 9 am
mm
Dir
 
Spd
km/h
Gust
km/h
Spd
kts
Gust
kts
27/11:30pm 24.2 27.7 22.1 88 1.4 SW 7 11 4 6 1008.5 - 15.0
27/11:00pm 24.3 28.3 22.0 87 1.5 SW 4 7 2 4 1008.4 - 15.0
27/10:30pm 24.1 27.0 21.8 87 1.5 SW 9 15 5 8 1008.6 - 14.8
27/10:00pm 24.2 26.7 21.7 86 1.7 NE 11 17 6 9 1008.0 - 14.6
27/09:30pm 23.9 26.2 21.4 86 1.7 ENE 11 17 6 9 1008.4 - 14.4
27/09:00pm 23.9 27.6 21.4 86 1.7 NNE 4 11 2 6 1008.5 1007.9 14.0
27/08:30pm 23.6 26.6 20.9 85 1.8 E 6 9 3 5 1008.6 - 12.8
27/08:00pm 23.5 25.1 20.8 85 1.8 ESE 13 19 7 10 1008.7 - 11.2
27/07:30pm 24.2 25.7 21.3 84 1.9 SSE 15 24 8 13 1009.4 - 8.6
27/07:00pm 24.3 24.9 21.0 82 2.2 SSE 19 24 10 13 1009.3 - 8.2
27/06:30pm 25.6 26.6 22.1 81 2.4 S 20 28 11 15 1007.7 - 7.6
27/06:00pm 26.4 29.0 22.7 80 2.5 NW 13 24 7 13 1005.8 1005.3 6.2
27/05:30pm 25.6 26.2 21.3 77 2.9 W 20 32 11 17 1004.6 - 6.0
27/05:00pm 24.7 24.4 19.1 71 3.6 WNW 19 30 10 16 1004.7 - 3.0
27/04:30pm 24.2 20.6 16.2 61 4.9 NNE 30 48 16 26 1004.1 - 2.4
27/04:28pm 24.3 20.2 16.0 60 5.1 NNE 32 48 17 26 1004.1 - 2.0
27/04:12pm 29.4 26.7 19.7 56 6.4 NE 33 54 18 29 1004.6 - 0.2
27/04:10pm 30.8 28.9 21.0 56 6.6 NE 32 41 17 22 1004.5 - 0.2
27/04:00pm 32.2 34.4 22.6 57 6.6 NNW 15 20 8 11 1003.8 - 0.2
27/03:30pm 33.5 37.3 24.1 58 6.6 WNW 11 15 6 8 1003.4 - 0.2
27/03:00pm 32.5 35.5 22.6 56 6.8 W 11 20 6 11 1004.1 1003.6 0.2
27/02:30pm 32.0 33.3 23.3 60 6.0 NE 22 35 12 19 1004.5 - 0.2
27/02:00pm 30.9 33.7 23.0 62 5.4 SW 13 17 7 9 1004.6 - 0.2
27/01:30pm 30.4 30.1 20.3 54 6.7 SE 22 44 12 24 1005.3 - 0.0
27/01:27pm 31.5 31.2 21.1 54 7.0 SE 24 44 13 24 1005.3 - 0.0
27/01:00pm 36.5 41.1 26.0 55 7.6 SSW 13 19 7 10 1005.6 - 0.0
27/12:30pm 35.1 39.8 25.6 58 6.8 SW 11 19 6 10 1006.4 - 0.0
27/12:00pm 34.5 40.2 25.9 61 6.2 WSW 7 19 4 10 1007.0 1006.4 0.0
27/11:30am 34.1 39.0 25.8 62 5.9 SW 11 24 6 13 1007.5 - 0.0
27/11:00am 33.2 38.0 25.7 64 5.4 SSW 11 17 6 9 1008.0 - 0.0
27/10:30am 32.6 39.2 26.4 70 4.5 N 4 9 2 5 1008.4 - 0.0
27/10:00am 30.6 35.9 25.2 73 3.8 N 7 11 4 6 1008.8 - 0.0
27/09:30am 29.6 33.7 24.5 74 3.6 NNW 11 13 6 7 1008.9 - 0.0
27/09:00am 28.5 33.1 24.1 77 3.1 NNW 7 9 4 5 1008.9 1008.3 0.0
27/08:30am 27.5 32.3 23.5 79 2.7 NNW 4 7 2 4 1008.8 - 0.0
27/08:00am 26.3 30.0 22.6 80 2.5 N 7 9 4 5 1008.7 - 0.0
27/07:30am 25.5 28.1 22.0 81 2.3 N 11 17 6 9 1008.7 - 0.0
27/07:00am 24.7 27.9 21.2 81 2.3 N 6 7 3 4 1008.5 - 0.0
27/06:30am 24.5 26.5 20.8 80 2.4 N 11 13 6 7 1008.2 - 0.0
27/06:00am 24.1 26.1 20.0 78 2.7 N 9 13 5 7 1008.1 1007.5 0.0
27/05:30am 24.5 25.4 20.0 76 2.9 NNE 15 24 8 13 1007.7 - 0.0
27/05:00am 25.3 27.3 20.8 76 3.0 ENE 11 17 6 9 1007.8 - 0.0
27/04:30am 25.7 26.4 21.6 78 2.7 ESE 20 37 11 20 1007.9 - 0.0
27/04:00am 27.0 30.4 23.3 80 2.5 SE 11 13 6 7 1007.4 - 0.0
27/03:30am 27.0 31.9 23.0 79 2.7 S 2 7 1 4 1006.7 - 0.0
27/03:00am 27.4 31.8 23.4 79 2.7 NNW 6 9 3 5 1007.0 1006.4 0.0
27/02:30am 27.4 31.5 23.2 78 2.9 NW 7 11 4 6 1006.7 - 0.0
27/02:00am 27.6 31.3 23.2 77 3.0 NW 9 17 5 9 1006.9 - 0.0
27/01:30am 27.5 30.9 22.7 75 3.3 NW 9 13 5 7 1006.9 - 0.0
27/01:00am 27.7 30.9 22.4 73 3.6 NNW 9 17 5 9 1007.6 - 0.0
27/12:30am 27.9 31.5 22.1 70 3.9 NW 6 15 3 8 1008.3 - 0.0
27/12:00am 28.4 31.6 22.4 70 4.1 NNW 9 17 5 9 1008.7 1008.1 0.0
 
Date/Time
CST
Temp
°C
App
Temp
°C
Dew
Point
Rel
Hum
%
Delta-T
°C
Wind Press
QNH
hPa
Press
MSL
hPa
Rain
since 9 am
mm
Dir
 
Spd
km/h
Gust
km/h
Spd
kts
Gust
kts
26/11:30pm 28.7 31.8 22.2 68 4.4 WNW 9 15 5 8 1008.9 - 0.0
26/11:00pm 29.0 31.4 22.2 66 4.6 WNW 13 20 7 11 1008.8 - 0.0
26/10:30pm 29.4 31.5 22.4 66 4.8 WNW 15 24 8 13 1008.5 - 0.0
26/10:00pm 29.8 31.2 22.5 65 5.0 WNW 19 30 10 16 1008.0 - 0.0
26/09:30pm 30.4 33.0 22.6 63 5.3 NW 13 20 7 11 1007.4 - 0.0
26/09:00pm 31.3 32.6 22.6 60 6.0 NW 20 30 11 16 1006.6 1006.1 0.0
26/08:30pm 30.9 34.2 21.4 57 6.4 NW 6 7 3 4 1006.2 - 0.0
26/08:00pm 31.5 34.6 21.1 54 7.0 WNW 6 7 3 4 1006.0 - 0.0
26/07:30pm 32.4 34.9 21.0 51 7.7 NW 9 11 5 6 1005.7 - 0.0
26/07:00pm 34.1 37.6 21.9 49 8.3 NW 6 7 3 4 1005.5 - 0.0
26/06:30pm 35.4 39.0 22.4 47 9.0 W 7 9 4 5 1005.4 - 0.0
26/06:00pm 36.3 40.5 23.2 47 9.2 W 6 11 3 6 1005.1 1004.6 0.0
26/05:30pm 36.1 39.7 23.0 46 9.1 SW 9 11 5 6 1005.0 - 0.0
26/05:00pm 35.6 38.7 22.9 48 8.8 NNW 11 15 6 8 1004.9 - 0.0
26/04:30pm 36.6 40.8 24.1 48 8.8 SW 9 17 5 9 1004.9 - 0.0
26/04:00pm 36.2 39.8 23.8 49 8.7 S 11 17 6 9 1004.8 - 0.0
26/03:30pm 35.7 39.5 24.0 51 8.2 SSW 11 15 6 8 1005.3 - 0.0
26/03:00pm 35.3 39.0 23.9 51 8.0 SE 11 19 6 10 1005.6 1005.1 0.0
26/02:30pm 35.0 40.3 24.3 54 7.5 N 4 13 2 7 1006.3 - 0.0
26/02:00pm 34.7 39.8 24.6 55 7.1 SE 6 13 3 7 1007.5 - 0.0
26/01:30pm 34.0 38.3 24.3 57 6.8 ESE 9 17 5 9 1008.2 - 0.0
26/01:00pm 33.6 38.4 24.5 59 6.4 ESE 7 15 4 8 1008.7 - 0.0
26/12:30pm 32.7 36.6 24.2 61 6.0 ESE 11 20 6 11 1009.3 - 0.0
26/12:00pm 31.8 33.6 23.3 60 5.9 SE 19 28 10 15 1009.7 1009.1 0.0
26/11:30am 31.8 33.8 23.6 62 5.7 SE 19 30 10 16 1009.9 - 0.0
26/11:00am 32.2 35.3 24.8 65 5.2 ESE 17 22 9 12 1010.3 - 0.0
26/10:30am 32.2 37.1 25.3 67 4.9 SE 9 20 5 11 1010.7 - 0.0
26/10:00am 30.7 35.2 24.6 70 4.3 E 9 19 5 10 1011.1 - 0.0
26/09:30am 29.9 34.3 24.5 73 3.8 ESE 9 15 5 8 1011.1 - 0.0
26/09:00am 29.1 34.0 24.6 76 3.1 NNE 7 13 4 7 1010.9 1010.3 0.0
26/08:30am 28.2 32.7 24.6 81 2.5 E 9 13 5 7 1011.1 - 0.0
26/08:00am 26.3 31.5 23.6 85 1.9 W 2 6 1 3 1011.3 - 0.0
26/07:30am 24.9 29.8 22.4 86 1.7 CALM 0 0 0 0 1011.2 - 0.0
26/07:00am 24.4 28.2 21.7 85 1.8 WSW 4 7 2 4 1011.0 - 0.0
26/06:30am 24.3 27.5 21.6 85 1.8 SSW 7 9 4 5 1010.4 - 0.0
26/06:00am 24.4 27.7 21.5 84 1.9 SSW 6 9 3 5 1009.9 1009.3 0.0
26/05:30am 24.8 28.6 21.7 83 2.1 S 4 9 2 5 1009.1 - 0.0
26/05:00am 24.8 29.3 21.5 82 2.2 CALM 0 0 0 0 1008.3 - 0.0
26/04:30am 24.9 28.1 21.6 82 2.2 S 7 9 4 5 1007.8 - 0.0
26/04:00am 24.9 28.0 21.4 81 2.3 NNW 7 9 4 5 1007.3 - 0.0
26/03:30am 24.8 28.8 21.3 81 2.3 N 2 7 1 4 1007.6 - 0.0
26/03:00am 24.8 28.3 21.1 80 2.4 SE 4 6 2 3 1007.8 1007.2 0.0
26/02:30am 24.8 29.0 20.9 79 2.6 CALM 0 0 0 0 1007.9 - 0.0
26/02:00am 25.0 27.0 20.7 77 2.8 SSW 11 13 6 7 1008.1 - 0.0
26/01:30am 25.4 28.3 21.1 77 2.8 W 7 9 4 5 1008.6 - 0.0
26/01:00am 25.3 27.7 20.8 76 3.0 W 9 11 5 6 1009.7 - 0.0
26/12:30am 25.5 28.3 20.5 74 3.3 W 6 9 3 5 1010.8 - 0.0
26/12:00am 25.8 28.4 20.4 72 3.5 SSW 7 9 4 5 1011.5 1010.9 0.0
 
Date/Time
CST
Temp
°C
App
Temp
°C
Dew
Point
Rel
Hum
%
Delta-T
°C
Wind Press
QNH
hPa
Press
MSL
hPa
Rain
since 9 am
mm
Dir
 
Spd
km/h
Gust
km/h
Spd
kts
Gust
kts
25/11:30pm 25.9 28.4 20.2 71 3.7 SSE 7 9 4 5 1011.4 - 0.0
25/11:00pm 26.0 28.0 19.9 69 4.0 SE 9 15 5 8 1011.4 - 0.0
25/10:30pm 26.4 28.8 20.0 68 4.2 SE 7 9 4 5 1011.4 - 0.0
25/10:00pm 26.9 29.6 20.7 69 4.1 SSW 7 13 4 7 1011.1 - 0.0
25/09:30pm 27.3 30.9 20.6 67 4.4 NW 2 6 1 3 1010.9 - 0.0
25/09:00pm 28.1 30.5 21.6 68 4.4 SSW 11 15 6 8 1011.0 1010.4 0.0
25/08:30pm 28.4 30.1 21.7 67 4.5 SE 15 20 8 11 1010.5 - 0.0
25/08:00pm 28.1 29.9 21.1 65 4.7 N 13 17 7 9 1009.6 - 0.0
25/07:30pm 27.9 28.6 20.5 64 4.9 NNW 17 24 9 13 1008.3 - 0.0
25/07:00pm 29.4 30.4 21.1 61 5.5 NNW 17 32 9 17 1007.2 - 0.0
25/06:30pm 30.3 29.6 21.1 58 6.2 NNW 26 39 14 21 1006.9 - 0.0
25/06:00pm 31.7 32.4 21.5 54 6.9 NNW 20 35 11 19 1005.7 1005.2 0.0
25/05:30pm 33.5 35.5 22.9 53 7.3 WNW 17 26 9 14 1005.8 - 0.0
25/05:00pm 33.5 33.6 23.2 54 7.1 NW 28 41 15 22 1005.1 - 0.0
25/04:42pm 32.9 31.7 20.8 49 8.1 NW 28 44 15 24 1004.7 - 0.0
25/04:30pm 37.4 40.9 24.9 49 8.9 W 15 22 8 12 1004.8 - 0.0
25/04:00pm 37.1 40.9 25.3 51 8.5 WSW 15 22 8 12 1004.9 - 0.0
25/03:30pm 35.8 39.6 24.7 52 7.9 WSW 13 20 7 11 1005.6 - 0.0
25/03:00pm 36.6 40.9 26.1 55 7.6 SW 15 22 8 12 1006.4 1005.9 0.0
25/02:30pm 36.3 39.9 26.1 55 7.4 SW 19 28 10 15 1007.2 - 0.0
25/02:00pm 36.1 40.3 26.5 57 7.0 W 17 26 9 14 1007.9 - 0.0
25/01:30pm 35.4 40.3 26.4 59 6.5 W 13 17 7 9 1008.3 - 0.0
25/01:00pm 35.2 40.4 26.8 62 6.1 NW 13 20 7 11 1008.9 - 0.0
25/12:30pm 34.6 39.0 26.8 64 5.7 NW 17 24 9 13 1009.5 - 0.0
25/12:00pm 33.7 37.5 26.5 66 5.2 NNW 19 26 10 14 1009.9 1009.3 0.0
25/11:30am 33.9 38.7 27.4 69 4.7 WNW 17 24 9 13 1010.3 - 0.0
25/11:00am 32.9 37.6 27.2 72 4.1 NW 17 26 9 14 1010.1 - 0.0

Other Formats:

Comma delimited format used in spreadsheet applications
http://www.bom.gov.au/fwo/IDD60801/IDD60801.94130.axf

JavaScript Object Notation format (JSON) in row-major order
http://www.bom.gov.au/fwo/IDD60801/IDD60801.94130.json